Time;durP1;ratioP1;P1;durP2;ratioP2;P2;SDS_P1;SDS_P2;PMS_P1;PMS_P2;Temp;Humidity;BMP_temperature;BMP_pressure;BME280_temperature;BME280_humidity;BME280_pressure;Samples;Min_cycle;Max_cycle;Signal;HPM_P1;HPM_P2
2023/05/12 00:01:16;;;;;;;;;;;;;;;;;;5108923;28;19912;-45
2023/05/12 05:09:46;;;;;;;;;;;;;;;;;;5106439;28;19965;-45
2023/05/12 05:12:12;;;;;;;;;;;;;;;;;;5109846;28;20364;-44
2023/05/12 05:14:38;;;;;;;;;;;;;;;;;;5110311;28;19954;-46
2023/05/12 05:17:06;;;;;;;;;;;;;;;;;;5110245;28;19958;-47
2023/05/12 05:19:32;;;;;;;;;;;;;;;;;;5109594;28;19924;-46
2023/05/12 05:21:58;;;;;;;;;;;;;;;;;;5121761;27;19912;-45
2023/05/12 05:24:24;;;;;;;;;;;;;;;;;;5113168;27;19992;-44
2023/05/12 05:26:50;;;;;;;;;;;;;;;;;;5130819;27;19998;-44
2023/05/12 05:29:16;;;;;;;;;;;;;;;;;;5123485;27;19916;-45
2023/05/12 05:31:43;;;;;;;;;;;;;;;;;;5131595;27;19911;-46
2023/05/12 05:34:09;;;;;;;;;;;;;;;;;;5131097;27;19907;-43
2023/05/12 05:36:34;;;;;;;;;;;;;;;;;;5131417;27;20304;-44
2023/05/12 05:39:00;;;;;;;;;;;;;;;;;;5131213;27;19916;-44
2023/05/12 05:41:26;;;;;;;;;;;;;;;;;;5131828;27;19979;-44
2023/05/12 05:43:52;;;;;;;;;;;;;;;;;;5131650;27;19911;-47
2023/05/12 05:46:18;;;;;;;;;;;;;;;;;;5131779;27;19930;-45
2023/05/12 05:48:44;;;;;;;;;;;;;;;;;;5131624;27;19911;-43
2023/05/12 05:51:10;;;;;;;;;;;;;;;;;;5131691;27;19911;-46
2023/05/12 05:53:36;;;;;;;;;;;;;;;;;;5131176;27;19912;-44
2023/05/12 05:56:02;;;;;;;;;;;;;;;;;;5131424;27;19911;-44
2023/05/12 05:58:28;;;;;;;;;;;;;;;;;;5131284;27;19911;-45
2023/05/12 06:00:54;;;;;;;;;;;;;;;;;;5126132;27;20002;-45
2023/05/12 06:03:20;;;;;;;;;;;;;;;;;;5111108;28;19912;-44
2023/05/12 06:05:46;;;;;;;;;;;;;;;;;;5117946;27;19912;-46
2023/05/12 06:08:12;;;;;;;;;;;;;;;;;;5127008;27;19938;-43
2023/05/12 06:10:38;;;;;;;;;;;;;;;;;;5124378;27;19950;-47
2023/05/12 06:13:05;;;;;;;;;;;;;;;;;;5127682;27;20478;-44
2023/05/12 06:15:31;;;;;;;;;;;;;;;;;;5119850;27;19950;-44
2023/05/12 06:17:57;;;;;;;;;;;;;;;;;;5128558;27;19963;-44
2023/05/12 06:20:24;;;;;;;;;;;;;;;;;;5128475;27;19915;-45
2023/05/12 06:22:50;;;;;;;;;;;;;;;;;;5128145;27;19950;-44
2023/05/12 06:25:16;;;;;;;;;;;;;;;;;;5115867;27;20426;-45
2023/05/12 06:27:42;;;;;;;;;;;;;;;;;;5113148;27;19916;-44
2023/05/12 06:30:09;;;;;;;;;;;;;;;;;;5129976;27;19964;-45
2023/05/12 06:32:35;;;;;;;;;;;;;;;;;;5130209;27;19908;-45
2023/05/12 06:35:02;;;;;;;;;;;;;;;;;;5124178;27;19915;-46
2023/05/12 06:37:29;;;;;;;;;;;;;;;;;;5122403;27;19977;-47
2023/05/12 06:39:55;;;;;;;;;;;;;;;;;;5130110;27;20112;-44
2023/05/12 06:42:22;;;;;;;;;;;;;;;;;;5130457;27;19911;-43
2023/05/12 06:44:47;;;;;;;;;;;;;;;;;;5130102;27;19915;-45
2023/05/12 06:47:15;;;;;;;;;;;;;;;;;;5133272;27;19922;-45
2023/05/12 06:49:40;;;;;;;;;;;;;;;;;;5135198;27;19972;-47
2023/05/12 06:52:06;;;;;;;;;;;;;;;;;;5129844;27;19915;-46
2023/05/12 06:54:32;;;;;;;;;;;;;;;;;;5132083;27;19912;-47
2023/05/12 06:56:58;;;;;;;;;;;;;;;;;;5119068;27;19970;-45
2023/05/12 06:59:24;;;;;;;;;;;;;;;;;;5128947;27;19915;-46
2023/05/12 07:01:50;;;;;;;;;;;;;;;;;;5111802;27;19908;-44
2023/05/12 07:04:16;;;;;;;;;;;;;;;;;;5128149;27;19911;-45
2023/05/12 07:06:42;;;;;;;;;;;;;;;;;;5130084;27;19914;-44
2023/05/12 07:09:08;;;;;;;;;;;;;;;;;;5131177;27;19935;-45
2023/05/12 07:11:34;;;;;;;;;;;;;;;;;;5130842;27;20377;-44
2023/05/12 07:14:00;;;;;;;;;;;;;;;;;;5138136;27;20006;-44
2023/05/12 07:16:26;;;;;;;;;;;;;;;;;;5132671;27;19912;-48
2023/05/12 07:18:52;;;;;;;;;;;;;;;;;;5126178;27;20727;-44
2023/05/12 07:21:18;;;;;;;;;;;;;;;;;;5118129;27;19938;-46
2023/05/12 07:23:44;;;;;;;;;;;;;;;;;;5125277;27;19922;-46
2023/05/12 07:26:10;;;;;;;;;;;;;;;;;;5130703;27;19907;-47
2023/05/12 07:28:36;;;;;;;;;;;;;;;;;;5129205;27;20013;-46
2023/05/12 07:31:02;;;;;;;;;;;;;;;;;;5128644;27;19915;-45
2023/05/12 07:33:28;;;;;;;;;;;;;;;;;;5129503;28;19913;-45
2023/05/12 07:35:54;;;;;;;;;;;;;;;;;;5124844;28;19926;-46
2023/05/12 07:38:20;;;;;;;;;;;;;;;;;;5129754;28;19911;-45
2023/05/12 07:40:46;;;;;;;;;;;;;;;;;;5128536;28;19911;-45
2023/05/12 07:43:12;;;;;;;;;;;;;;;;;;5130149;28;19968;-47
2023/05/12 07:45:38;;;;;;;;;;;;;;;;;;5130408;28;19919;-44
2023/05/12 07:48:04;;;;;;;;;;;;;;;;;;5130321;28;19923;-45
2023/05/12 07:50:30;;;;;;;;;;;;;;;;;;5130626;28;19914;-47
2023/05/12 07:52:56;;;;;;;;;;;;;;;;;;5129669;27;19907;-46
2023/05/12 07:55:22;;;;;;;;;;;;;;;;;;5129498;27;19966;-45
2023/05/12 07:57:48;;;;;;;;;;;;;;;;;;5130173;28;19915;-47
2023/05/12 08:00:14;;;;;;;;;;;;;;;;;;5130248;28;19945;-45
2023/05/12 08:02:40;;;;;;;;;;;;;;;;;;5129425;27;20398;-45
2023/05/12 08:05:06;;;;;;;;;;;;;;;;;;5127441;28;19960;-45
2023/05/12 08:07:32;;;;;;;;;;;;;;;;;;5121485;28;19990;-44
2023/05/12 08:09:58;;;;;;;;;;;;;;;;;;5118419;28;19915;-47
2023/05/12 08:12:24;;;;;;;;;;;;;;;;;;5117089;28;19924;-45
2023/05/12 08:14:50;;;;;;;;;;;;;;;;;;5125946;27;19912;-47
2023/05/12 08:17:16;;;;;;;;;;;;;;;;;;5129851;27;19958;-47
2023/05/12 08:19:42;;;;;;;;;;;;;;;;;;5122032;27;19918;-48
2023/05/12 08:22:08;;;;;;;;;;;;;;;;;;5124876;27;19937;-47
2023/05/12 08:24:33;;;;;;;;;;;;;;;;;;5134057;27;19911;-46
2023/05/12 08:26:59;;;;;;;;;;;;;;;;;;5132666;27;19934;-44
2023/05/12 08:29:25;;;;;;;;;;;;;;;;;;5115986;27;19981;-45
2023/05/12 08:31:51;;;;;;;;;;;;;;;;;;5115634;27;19919;-45
2023/05/12 08:34:17;;;;;;;;;;;;;;;;;;5133410;27;19908;-45
2023/05/12 08:36:43;;;;;;;;;;;;;;;;;;5120283;27;19915;-45
2023/05/12 08:39:09;;;;;;;;;;;;;;;;;;5134115;27;19967;-45
2023/05/12 08:41:35;;;;;;;;;;;;;;;;;;5133563;27;19907;-45
2023/05/12 08:44:01;;;;;;;;;;;;;;;;;;5132538;27;20374;-45
2023/05/12 08:46:27;;;;;;;;;;;;;;;;;;5120136;27;19978;-45
2023/05/12 08:48:53;;;;;;;;;;;;;;;;;;5129292;27;19915;-45
2023/05/12 08:51:19;;;;;;;;;;;;;;;;;;5130881;27;19912;-45
2023/05/12 08:53:45;;;;;;;;;;;;;;;;;;5119580;27;19934;-46
2023/05/12 08:56:12;;;;;;;;;;;;;;;;;;5113338;27;19923;-46
2023/05/12 08:58:38;;;;;;;;;;;;;;;;;;5125202;27;19920;-45
2023/05/12 09:01:05;;;;;;;;;;;;;;;;;;5133342;27;20374;-46
2023/05/12 09:03:30;;;;;;;;;;;;;;;;;;5133495;27;19908;-45
2023/05/12 09:05:56;;;;;;;;;;;;;;;;;;5133249;27;19907;-45
2023/05/12 09:08:22;;;;;;;;;;;;;;;;;;5131273;27;19991;-45
2023/05/12 09:10:48;;;;;;;;;;;;;;;;;;5112811;28;19943;-45
2023/05/12 09:13:14;;;;;;;;;;;;;;;;;;5125767;27;20006;-45
2023/05/12 09:15:40;;;;;;;;;;;;;;;;;;5130568;27;19919;-45
2023/05/12 09:18:06;;;;;;;;;;;;;;;;;;5131285;27;19923;-45
2023/05/12 09:20:32;;;;;;;;;;;;;;;;;;5133040;27;19908;-45
2023/05/12 09:22:59;;;;;;;;;;;;;;;;;;5133011;27;20015;-45
2023/05/12 09:25:25;;;;;;;;;;;;;;;;;;5131939;27;19915;-45
2023/05/12 09:27:50;;;;;;;;;;;;;;;;;;5132062;27;19934;-45
2023/05/12 09:30:16;;;;;;;;;;;;;;;;;;5131415;27;19922;-46
2023/05/12 09:32:42;;;;;;;;;;;;;;;;;;5132765;27;19994;-45
2023/05/12 09:35:11;;;;;;;;;;;;;;;;;;5127884;27;19922;-45
2023/05/12 09:37:38;;;;;;;;;;;;;;;;;;5122061;27;20491;-44
2023/05/12 09:40:04;;;;;;;;;;;;;;;;;;5127790;27;19997;-45
2023/05/12 09:42:30;;;;;;;;;;;;;;;;;;5129631;27;19927;-45
2023/05/12 09:44:56;;;;;;;;;;;;;;;;;;5132532;27;20074;-45
2023/05/12 09:47:22;;;;;;;;;;;;;;;;;;5131098;27;20010;-45
2023/05/12 09:49:48;;;;;;;;;;;;;;;;;;5129234;27;19911;-44
2023/05/12 09:52:14;;;;;;;;;;;;;;;;;;5131915;27;19933;-45
2023/05/12 09:54:41;;;;;;;;;;;;;;;;;;5131837;27;19907;-45
2023/05/12 09:57:07;;;;;;;;;;;;;;;;;;5131611;27;19907;-45
2023/05/12 09:59:33;;;;;;;;;;;;;;;;;;5114416;27;19948;-45
2023/05/12 10:01:59;;;;;;;;;;;;;;;;;;5113477;27;19915;-46
2023/05/12 10:04:25;;;;;;;;;;;;;;;;;;5122388;27;19914;-47
2023/05/12 10:06:52;;;;;;;;;;;;;;;;;;5127282;27;20010;-47
2023/05/12 10:09:18;;;;;;;;;;;;;;;;;;5131180;27;20004;-46
2023/05/12 10:11:44;;;;;;;;;;;;;;;;;;5128499;27;19924;-48
2023/05/12 10:14:11;;;;;;;;;;;;;;;;;;5131613;27;19994;-46
2023/05/12 10:16:38;;;;;;;;;;;;;;;;;;5133265;27;20291;-46
2023/05/12 10:19:04;;;;;;;;;;;;;;;;;;5150965;27;19922;-44
2023/05/12 10:21:30;;;;;;;;;;;;;;;;;;5139194;27;19960;-45
2023/05/12 10:23:56;;;;;;;;;;;;;;;;;;5129277;27;19916;-46
2023/05/12 10:26:22;;;;;;;;;;;;;;;;;;5131330;27;19911;-46
2023/05/12 10:28:48;;;;;;;;;;;;;;;;;;5140285;27;20357;-46
2023/05/12 10:31:14;;;;;;;;;;;;;;;;;;5125456;27;19920;-47
2023/05/12 10:33:41;;;;;;;;;;;;;;;;;;5131732;27;19933;-45
2023/05/12 10:36:08;;;;;;;;;;;;;;;;;;5130933;27;19911;-45
2023/05/12 10:38:34;;;;;;;;;;;;;;;;;;5113315;27;19919;-45
2023/05/12 10:41:00;;;;;;;;;;;;;;;;;;5126717;27;20439;-45
2023/05/12 10:43:26;;;;;;;;;;;;;;;;;;5130592;27;19911;-46
2023/05/12 10:45:52;;;;;;;;;;;;;;;;;;5131456;27;19911;-45
2023/05/12 10:48:18;;;;;;;;;;;;;;;;;;5130824;27;19933;-45
2023/05/12 10:50:44;;;;;;;;;;;;;;;;;;5129944;27;19927;-47
2023/05/12 10:53:10;;;;;;;;;;;;;;;;;;5130600;27;19938;-44
2023/05/12 10:55:36;;;;;;;;;;;;;;;;;;5112127;27;19912;-44
2023/05/12 10:58:02;;;;;;;;;;;;;;;;;;5130161;27;20041;-49
2023/05/12 11:00:27;;;;;;;;;;;;;;;;;;5119905;27;20373;-44
2023/05/12 11:02:53;;;;;;;;;;;;;;;;;;5119457;27;19912;-45
2023/05/12 11:05:19;;;;;;;;;;;;;;;;;;5130967;27;19911;-46
2023/05/12 11:07:46;;;;;;;;;;;;;;;;;;5129546;27;19911;-46
2023/05/12 11:10:11;;;;;;;;;;;;;;;;;;5129393;27;19923;-48
2023/05/12 11:12:37;;;;;;;;;;;;;;;;;;5129817;27;20301;-46
2023/05/12 11:15:03;;;;;;;;;;;;;;;;;;5125905;27;19915;-46
2023/05/12 11:17:29;;;;;;;;;;;;;;;;;;5130555;27;19935;-46
2023/05/12 11:19:55;;;;;;;;;;;;;;;;;;5128871;27;20324;-45
2023/05/12 11:22:21;;;;;;;;;;;;;;;;;;5131143;27;20014;-48
2023/05/12 11:24:47;;;;;;;;;;;;;;;;;;5129899;27;19904;-47
2023/05/12 11:27:13;;;;;;;;;;;;;;;;;;5130662;27;19918;-46
2023/05/12 11:29:40;;;;;;;;;;;;;;;;;;5130967;27;19911;-48
2023/05/12 11:32:06;;;;;;;;;;;;;;;;;;5121271;28;19912;-47
2023/05/12 11:34:32;;;;;;;;;;;;;;;;;;5129176;28;19983;-47
2023/05/12 11:36:58;;;;;;;;;;;;;;;;;;5111281;28;19954;-47
2023/05/12 11:39:24;;;;;;;;;;;;;;;;;;5123010;28;19968;-45
2023/05/12 11:41:50;;;;;;;;;;;;;;;;;;5130175;28;19938;-44
2023/05/12 11:44:15;;;;;;;;;;;;;;;;;;5129479;28;19915;-46
2023/05/12 11:46:41;;;;;;;;;;;;;;;;;;5129644;28;20485;-48
2023/05/12 11:49:08;;;;;;;;;;;;;;;;;;5128350;27;20453;-47
2023/05/12 11:51:34;;;;;;;;;;;;;;;;;;5125959;27;19923;-48
2023/05/12 11:54:00;;;;;;;;;;;;;;;;;;5130698;27;20347;-45
2023/05/12 11:56:26;;;;;;;;;;;;;;;;;;5131786;27;19919;-48
2023/05/12 11:58:52;;;;;;;;;;;;;;;;;;5132927;27;20634;-46
2023/05/12 12:01:18;;;;;;;;;;;;;;;;;;5132886;27;20005;-48
2023/05/12 12:03:45;;;;;;;;;;;;;;;;;;5128722;27;20006;-46
2023/05/12 12:06:12;;;;;;;;;;;;;;;;;;5132840;27;19911;-48
2023/05/12 12:08:39;;;;;;;;;;;;;;;;;;5133247;27;19950;-44
2023/05/12 12:11:06;;;;;;;;;;;;;;;;;;5132484;27;19915;-45
2023/05/12 12:13:32;;;;;;;;;;;;;;;;;;5131599;27;19922;-48
2023/05/12 12:15:58;;;;;;;;;;;;;;;;;;5134193;27;19907;-48
2023/05/12 12:18:24;;;;;;;;;;;;;;;;;;5133148;27;20013;-47
2023/05/12 12:20:49;;;;;;;;;;;;;;;;;;5133349;27;19980;-45
2023/05/12 12:23:15;;;;;;;;;;;;;;;;;;5129952;27;19915;-47
2023/05/12 12:25:42;;;;;;;;;;;;;;;;;;5133582;27;19908;-49
2023/05/12 12:28:08;;;;;;;;;;;;;;;;;;5133146;27;19912;-46
2023/05/12 12:30:34;;;;;;;;;;;;;;;;;;5132673;27;20327;-45
2023/05/12 12:33:01;;;;;;;;;;;;;;;;;;5132873;27;19976;-49
2023/05/12 12:35:27;;;;;;;;;;;;;;;;;;5132889;27;19936;-49
2023/05/12 12:37:53;;;;;;;;;;;;;;;;;;5133107;27;19915;-48
2023/05/12 12:40:19;;;;;;;;;;;;;;;;;;5133161;27;20358;-46
2023/05/12 12:42:45;;;;;;;;;;;;;;;;;;5132896;27;19947;-47
2023/05/12 12:45:12;;;;;;;;;;;;;;;;;;5132735;27;20377;-48
2023/05/12 12:47:38;;;;;;;;;;;;;;;;;;5132960;27;19918;-45
2023/05/12 12:50:04;;;;;;;;;;;;;;;;;;5132948;27;19911;-46
2023/05/12 12:52:30;;;;;;;;;;;;;;;;;;5132879;27;20297;-48
2023/05/12 12:54:56;;;;;;;;;;;;;;;;;;5132525;27;19918;-47
2023/05/12 12:57:22;;;;;;;;;;;;;;;;;;5132848;27;20029;-49
2023/05/12 12:59:49;;;;;;;;;;;;;;;;;;5132556;27;19912;-47
2023/05/12 13:02:15;;;;;;;;;;;;;;;;;;5132732;27;19912;-48
2023/05/12 13:04:41;;;;;;;;;;;;;;;;;;5131330;27;19918;-47
2023/05/12 13:07:07;;;;;;;;;;;;;;;;;;5132565;27;19956;-48
2023/05/12 13:09:33;;;;;;;;;;;;;;;;;;5132312;27;19914;-48
2023/05/12 13:11:59;;;;;;;;;;;;;;;;;;5132254;27;19919;-46
2023/05/12 13:14:25;;;;;;;;;;;;;;;;;;5132176;27;20006;-48
2023/05/12 13:16:51;;;;;;;;;;;;;;;;;;5132544;27;20009;-47
2023/05/12 13:19:17;;;;;;;;;;;;;;;;;;5132248;27;19911;-45
2023/05/12 13:21:43;;;;;;;;;;;;;;;;;;5132091;27;19911;-47
2023/05/12 13:24:09;;;;;;;;;;;;;;;;;;5132003;27;19930;-47
2023/05/12 13:26:36;;;;;;;;;;;;;;;;;;5117129;27;20004;-49
2023/05/12 13:29:03;;;;;;;;;;;;;;;;;;5109752;28;19911;-48
2023/05/12 13:31:28;;;;;;;;;;;;;;;;;;5110038;28;19980;-49
2023/05/12 13:33:55;;;;;;;;;;;;;;;;;;5109900;28;19915;-46
2023/05/12 13:36:22;;;;;;;;;;;;;;;;;;5110005;28;19912;-46
2023/05/12 13:38:47;;;;;;;;;;;;;;;;;;5109540;28;19947;-47
2023/05/12 13:41:13;;;;;;;;;;;;;;;;;;5109586;28;19957;-46
2023/05/12 13:43:39;;;;;;;;;;;;;;;;;;5109603;28;20023;-49
2023/05/12 13:46:07;;;;;;;;;;;;;;;;;;5109667;28;19912;-45
2023/05/12 13:48:33;;;;;;;;;;;;;;;;;;5109728;28;19919;-45
2023/05/12 13:50:58;;;;;;;;;;;;;;;;;;5109272;28;19911;-47
2023/05/12 13:53:24;;;;;;;;;;;;;;;;;;5109421;28;20370;-46
2023/05/12 13:55:50;;;;;;;;;;;;;;;;;;5109969;28;20483;-49
2023/05/12 13:58:17;;;;;;;;;;;;;;;;;;5109277;28;19975;-46
2023/05/12 14:00:44;;;;;;;;;;;;;;;;;;5109479;28;19911;-46
2023/05/12 14:03:10;;;;;;;;;;;;;;;;;;5109584;28;19960;-46
2023/05/12 14:05:36;;;;;;;;;;;;;;;;;;5109177;28;20010;-45
2023/05/12 14:08:02;;;;;;;;;;;;;;;;;;5109148;28;20374;-48
2023/05/12 14:10:28;;;;;;;;;;;;;;;;;;5109144;28;19908;-48
2023/05/12 14:12:54;;;;;;;;;;;;;;;;;;5109023;28;20417;-46
2023/05/12 14:15:21;;;;;;;;;;;;;;;;;;5109168;28;19927;-47
2023/05/12 14:17:49;;;;;;;;;;;;;;;;;;5108524;28;20213;-46
2023/05/12 14:20:15;;;;;;;;;;;;;;;;;;5108693;28;19908;-49
2023/05/12 14:22:41;;;;;;;;;;;;;;;;;;5108859;28;19982;-47
2023/05/12 14:25:06;;;;;;;;;;;;;;;;;;5109159;28;19915;-46
2023/05/12 14:27:32;;;;;;;;;;;;;;;;;;5108968;28;19911;-47
2023/05/12 14:29:58;;;;;;;;;;;;;;;;;;5108732;28;20416;-46
2023/05/12 14:32:24;;;;;;;;;;;;;;;;;;5109309;28;19965;-49
2023/05/12 14:34:51;;;;;;;;;;;;;;;;;;5108909;28;20378;-50
2023/05/12 14:37:18;;;;;;;;;;;;;;;;;;5108472;28;19960;-46
2023/05/12 14:39:44;;;;;;;;;;;;;;;;;;5108343;28;19923;-49
2023/05/12 14:42:10;;;;;;;;;;;;;;;;;;5108676;28;19933;-47
2023/05/12 14:44:36;;;;;;;;;;;;;;;;;;5108781;28;20387;-48
2023/05/12 14:47:02;;;;;;;;;;;;;;;;;;5108574;28;19990;-46
2023/05/12 14:49:29;;;;;;;;;;;;;;;;;;5108308;28;20053;-47
2023/05/12 14:51:56;;;;;;;;;;;;;;;;;;5108454;28;19911;-48
2023/05/12 14:54:22;;;;;;;;;;;;;;;;;;5108548;28;19999;-45
2023/05/12 14:56:48;;;;;;;;;;;;;;;;;;5108510;28;19907;-49
2023/05/12 14:59:13;;;;;;;;;;;;;;;;;;5108170;28;19931;-48
2023/05/12 15:01:40;;;;;;;;;;;;;;;;;;5108221;28;20390;-49
2023/05/12 15:04:06;;;;;;;;;;;;;;;;;;5108116;28;19911;-47
2023/05/12 15:06:32;;;;;;;;;;;;;;;;;;5108173;28;19912;-47
2023/05/12 15:08:58;;;;;;;;;;;;;;;;;;5107858;28;19907;-48
2023/05/12 15:11:24;;;;;;;;;;;;;;;;;;5107960;28;19912;-45
2023/05/12 15:13:50;;;;;;;;;;;;;;;;;;5108674;28;19914;-48
2023/05/12 15:16:16;;;;;;;;;;;;;;;;;;5108116;28;19911;-47
2023/05/12 15:18:42;;;;;;;;;;;;;;;;;;5108263;28;19919;-48
2023/05/12 15:21:08;;;;;;;;;;;;;;;;;;5108225;28;19961;-47
2023/05/12 15:23:34;;;;;;;;;;;;;;;;;;5107587;28;19927;-48
2023/05/12 15:26:00;;;;;;;;;;;;;;;;;;5107846;28;20394;-49
2023/05/12 15:28:26;;;;;;;;;;;;;;;;;;5107374;28;19920;-45
2023/05/12 15:30:52;;;;;;;;;;;;;;;;;;5108042;28;20448;-46
2023/05/12 15:33:18;;;;;;;;;;;;;;;;;;5108064;28;20006;-48
2023/05/12 15:35:43;;;;;;;;;;;;;;;;;;5107984;28;20194;-47
2023/05/12 15:38:09;;;;;;;;;;;;;;;;;;5107554;28;19965;-48
2023/05/12 15:40:36;;;;;;;;;;;;;;;;;;5107574;28;19961;-47
2023/05/12 15:43:03;;;;;;;;;;;;;;;;;;5123722;28;19908;-47
2023/05/12 15:45:30;;;;;;;;;;;;;;;;;;5107790;28;19915;-45
2023/05/12 15:47:56;;;;;;;;;;;;;;;;;;5107856;28;20236;-47
2023/05/12 15:50:22;;;;;;;;;;;;;;;;;;5108321;28;19916;-50
2023/05/12 15:52:48;;;;;;;;;;;;;;;;;;5107904;28;19904;-49
2023/05/12 15:55:15;;;;;;;;;;;;;;;;;;5107578;28;19969;-45
2023/05/12 15:57:41;;;;;;;;;;;;;;;;;;5107649;28;19908;-49
2023/05/12 16:00:07;;;;;;;;;;;;;;;;;;5107614;28;19912;-49
2023/05/12 16:02:33;;;;;;;;;;;;;;;;;;5107747;28;19956;-46
2023/05/12 16:04:59;;;;;;;;;;;;;;;;;;5107669;28;19912;-49
2023/05/12 16:07:29;;;;;;;;;;;;;;;;;;5107293;28;19914;-48
2023/05/12 16:09:55;;;;;;;;;;;;;;;;;;5107558;28;20386;-47
2023/05/12 16:12:22;;;;;;;;;;;;;;;;;;5108095;28;19934;-48
2023/05/12 16:14:49;;;;;;;;;;;;;;;;;;5108132;28;19911;-48
2023/05/12 16:17:15;;;;;;;;;;;;;;;;;;5112319;28;19994;-47
2023/05/12 16:19:41;;;;;;;;;;;;;;;;;;5129287;28;20020;-48
2023/05/12 16:22:06;;;;;;;;;;;;;;;;;;5128232;28;19954;-45
2023/05/12 16:24:33;;;;;;;;;;;;;;;;;;5129651;28;19930;-48
2023/05/12 16:26:59;;;;;;;;;;;;;;;;;;5128464;28;19911;-49
2023/05/12 16:29:27;;;;;;;;;;;;;;;;;;5128639;28;20411;-47
2023/05/12 16:31:53;;;;;;;;;;;;;;;;;;5125177;28;19916;-45
2023/05/12 16:34:20;;;;;;;;;;;;;;;;;;5128411;28;19907;-45
2023/05/12 16:36:46;;;;;;;;;;;;;;;;;;5127487;28;19919;-48
2023/05/12 16:39:12;;;;;;;;;;;;;;;;;;5130334;27;19915;-46
2023/05/12 16:41:38;;;;;;;;;;;;;;;;;;5131143;27;19943;-46
2023/05/12 16:44:05;;;;;;;;;;;;;;;;;;5131034;27;19954;-46
2023/05/12 16:46:31;;;;;;;;;;;;;;;;;;5112400;28;19908;-48
2023/05/12 16:48:57;;;;;;;;;;;;;;;;;;5122276;27;19915;-44
2023/05/12 16:51:23;;;;;;;;;;;;;;;;;;5124821;27;19922;-46
2023/05/12 16:53:49;;;;;;;;;;;;;;;;;;5132808;27;19918;-46
2023/05/12 16:56:15;;;;;;;;;;;;;;;;;;5132205;27;19912;-45
2023/05/12 16:58:43;;;;;;;;;;;;;;;;;;5129288;27;19960;-46
2023/05/12 17:01:09;;;;;;;;;;;;;;;;;;5130520;27;20307;-46
2023/05/12 17:03:35;;;;;;;;;;;;;;;;;;5131552;27;20393;-48
2023/05/12 17:06:01;;;;;;;;;;;;;;;;;;5131819;27;19937;-47
2023/05/12 17:08:27;;;;;;;;;;;;;;;;;;5131137;27;19916;-47
2023/05/12 17:10:53;;;;;;;;;;;;;;;;;;5132795;27;20289;-46
2023/05/12 17:13:20;;;;;;;;;;;;;;;;;;5130745;27;19920;-49
2023/05/12 17:15:46;;;;;;;;;;;;;;;;;;5130917;27;19960;-45
2023/05/12 17:18:12;;;;;;;;;;;;;;;;;;5118883;27;19915;-48
2023/05/12 17:20:38;;;;;;;;;;;;;;;;;;5117585;27;19923;-47
2023/05/12 17:23:04;;;;;;;;;;;;;;;;;;5131034;27;19950;-46
2023/05/12 17:25:30;;;;;;;;;;;;;;;;;;5108629;27;20362;-48
2023/05/12 17:27:57;;;;;;;;;;;;;;;;;;5130632;27;20563;-47
2023/05/12 17:30:23;;;;;;;;;;;;;;;;;;5130664;27;19915;-44
2023/05/12 17:32:49;;;;;;;;;;;;;;;;;;5130537;27;19930;-46
2023/05/12 17:35:16;;;;;;;;;;;;;;;;;;5130801;27;20282;-47
2023/05/12 17:37:42;;;;;;;;;;;;;;;;;;5129516;27;19911;-45
2023/05/12 17:40:08;;;;;;;;;;;;;;;;;;5130634;27;19921;-46
2023/05/12 17:42:34;;;;;;;;;;;;;;;;;;5129655;27;20710;-45
2023/05/12 17:45:00;;;;;;;;;;;;;;;;;;5130517;27;19975;-46
2023/05/12 17:47:26;;;;;;;;;;;;;;;;;;5135659;27;19907;-47
2023/05/12 17:49:52;;;;;;;;;;;;;;;;;;5130325;27;19934;-45
2023/05/12 17:52:19;;;;;;;;;;;;;;;;;;5111322;27;19911;-44
2023/05/12 17:54:44;;;;;;;;;;;;;;;;;;5126495;27;20009;-45
2023/05/12 17:57:10;;;;;;;;;;;;;;;;;;5110133;27;20010;-46
2023/05/12 17:59:36;;;;;;;;;;;;;;;;;;5128119;27;20293;-46
2023/05/12 18:02:02;;;;;;;;;;;;;;;;;;5109670;27;20022;-43
2023/05/12 18:04:28;;;;;;;;;;;;;;;;;;5127944;27;19938;-44
2023/05/12 18:06:56;;;;;;;;;;;;;;;;;;5120999;27;19916;-45
2023/05/12 18:09:22;;;;;;;;;;;;;;;;;;5127845;27;19912;-47
2023/05/12 18:11:48;;;;;;;;;;;;;;;;;;5127950;27;19919;-47
2023/05/12 18:14:14;;;;;;;;;;;;;;;;;;5132191;27;19964;-46
2023/05/12 18:16:40;;;;;;;;;;;;;;;;;;5136700;27;19911;-48
2023/05/12 18:19:06;;;;;;;;;;;;;;;;;;5127386;27;19915;-46
2023/05/12 18:21:32;;;;;;;;;;;;;;;;;;5128688;27;19998;-48
2023/05/12 18:23:58;;;;;;;;;;;;;;;;;;5129111;27;19911;-45
2023/05/12 18:26:25;;;;;;;;;;;;;;;;;;5128648;27;20000;-44
2023/05/12 18:28:51;;;;;;;;;;;;;;;;;;5124134;27;20377;-48
2023/05/12 18:31:18;;;;;;;;;;;;;;;;;;5127499;27;19911;-45
2023/05/12 18:33:44;;;;;;;;;;;;;;;;;;5125341;27;19923;-45
2023/05/12 18:36:11;;;;;;;;;;;;;;;;;;5128190;27;19911;-46
2023/05/12 18:38:37;;;;;;;;;;;;;;;;;;5128665;27;19980;-48
2023/05/12 18:41:03;;;;;;;;;;;;;;;;;;5128526;27;21502;-46
2023/05/12 18:43:30;;;;;;;;;;;;;;;;;;5126589;27;19969;-45
2023/05/12 18:45:56;;;;;;;;;;;;;;;;;;5127114;27;19994;-48
2023/05/12 18:48:22;;;;;;;;;;;;;;;;;;5126811;27;19999;-46
2023/05/12 18:50:48;;;;;;;;;;;;;;;;;;5121660;27;19961;-46
2023/05/12 18:53:15;;;;;;;;;;;;;;;;;;5125781;27;19919;-45
2023/05/12 18:55:41;;;;;;;;;;;;;;;;;;5126927;27;20314;-45
2023/05/12 18:58:08;;;;;;;;;;;;;;;;;;5127436;27;20006;-44
2023/05/12 19:00:34;;;;;;;;;;;;;;;;;;5125787;27;20335;-45
2023/05/12 19:03:01;;;;;;;;;;;;;;;;;;5126420;27;20342;-46
2023/05/12 19:05:27;;;;;;;;;;;;;;;;;;5126985;27;19914;-45
2023/05/12 19:07:53;;;;;;;;;;;;;;;;;;5127555;27;20196;-46
2023/05/12 19:10:19;;;;;;;;;;;;;;;;;;5127667;27;20298;-46
2023/05/12 19:12:47;;;;;;;;;;;;;;;;;;5115724;27;20006;-46
2023/05/12 19:15:13;;;;;;;;;;;;;;;;;;5107493;28;20461;-45
2023/05/12 19:17:40;;;;;;;;;;;;;;;;;;5124524;27;19911;-48
2023/05/12 19:20:06;;;;;;;;;;;;;;;;;;5125396;27;19912;-47
2023/05/12 19:22:34;;;;;;;;;;;;;;;;;;5126892;27;19915;-47
2023/05/12 19:25:01;;;;;;;;;;;;;;;;;;5126842;27;19919;-46
2023/05/12 19:27:27;;;;;;;;;;;;;;;;;;5126739;27;19961;-48
2023/05/12 19:29:54;;;;;;;;;;;;;;;;;;5127607;27;19965;-45
2023/05/12 19:32:19;;;;;;;;;;;;;;;;;;5126892;27;19912;-46
2023/05/12 19:34:45;;;;;;;;;;;;;;;;;;5126378;27;19919;-48
2023/05/12 19:37:11;;;;;;;;;;;;;;;;;;5107778;28;19911;-46
2023/05/12 19:39:38;;;;;;;;;;;;;;;;;;5125509;28;19992;-45
2023/05/12 19:42:04;;;;;;;;;;;;;;;;;;5127157;28;19915;-45
2023/05/12 19:44:30;;;;;;;;;;;;;;;;;;5124723;28;20418;-45
2023/05/12 19:46:58;;;;;;;;;;;;;;;;;;5126279;28;20305;-45
2023/05/12 19:49:24;;;;;;;;;;;;;;;;;;5126006;28;20132;-47
2023/05/12 19:51:50;;;;;;;;;;;;;;;;;;5126859;28;19912;-45
2023/05/12 19:54:16;;;;;;;;;;;;;;;;;;5126380;28;19912;-46
2023/05/12 19:56:43;;;;;;;;;;;;;;;;;;5126657;28;19919;-45
2023/05/12 19:59:10;;;;;;;;;;;;;;;;;;5125878;28;19919;-45
2023/05/12 20:01:36;;;;;;;;;;;;;;;;;;5107733;28;20000;-48
2023/05/12 20:04:02;;;;;;;;;;;;;;;;;;5122944;28;19954;-47
2023/05/12 20:06:27;;;;;;;;;;;;;;;;;;5121481;28;19911;-46
2023/05/12 20:08:53;;;;;;;;;;;;;;;;;;5126292;28;19923;-45
2023/05/12 20:11:19;;;;;;;;;;;;;;;;;;5126733;28;19912;-46
2023/05/12 20:13:46;;;;;;;;;;;;;;;;;;5109094;27;19924;-48
2023/05/12 20:16:12;;;;;;;;;;;;;;;;;;5129906;27;19918;-48
2023/05/12 20:18:39;;;;;;;;;;;;;;;;;;5129535;27;19919;-46
2023/05/12 20:21:05;;;;;;;;;;;;;;;;;;5128424;27;20325;-46
2023/05/12 20:23:31;;;;;;;;;;;;;;;;;;5130228;27;20006;-46
2023/05/12 20:25:58;;;;;;;;;;;;;;;;;;5129272;27;19911;-48
2023/05/12 20:28:24;;;;;;;;;;;;;;;;;;5130114;27;19926;-47
2023/05/12 20:30:51;;;;;;;;;;;;;;;;;;5129458;27;19919;-48
2023/05/12 20:33:17;;;;;;;;;;;;;;;;;;5130228;27;19911;-45
2023/05/12 20:35:44;;;;;;;;;;;;;;;;;;5130317;27;20404;-49
2023/05/12 20:38:11;;;;;;;;;;;;;;;;;;5112441;27;19911;-48
2023/05/12 20:40:39;;;;;;;;;;;;;;;;;;5109512;27;20010;-45
2023/05/12 20:43:05;;;;;;;;;;;;;;;;;;5130373;27;20396;-48
2023/05/12 20:45:31;;;;;;;;;;;;;;;;;;5129431;27;19998;-48
2023/05/12 20:47:56;;;;;;;;;;;;;;;;;;5129468;27;19915;-47
2023/05/12 20:50:23;;;;;;;;;;;;;;;;;;5128688;27;19919;-46
2023/05/12 20:52:49;;;;;;;;;;;;;;;;;;5128417;27;19916;-48
2023/05/12 20:55:16;;;;;;;;;;;;;;;;;;5128650;27;19918;-47
2023/05/12 20:57:43;;;;;;;;;;;;;;;;;;5128726;27;20354;-49
2023/05/12 21:00:12;;;;;;;;;;;;;;;;;;5128991;27;19971;-48
2023/05/12 21:02:38;;;;;;;;;;;;;;;;;;5127004;27;19908;-49
2023/05/12 21:05:04;;;;;;;;;;;;;;;;;;5110542;27;19922;-48
2023/05/12 21:07:30;;;;;;;;;;;;;;;;;;5119193;27;19978;-48
2023/05/12 21:09:58;;;;;;;;;;;;;;;;;;5105962;28;19926;-48
2023/05/12 21:12:24;;;;;;;;;;;;;;;;;;5107486;28;19968;-48
2023/05/12 21:14:51;;;;;;;;;;;;;;;;;;5107928;27;19919;-49
2023/05/12 21:17:17;;;;;;;;;;;;;;;;;;5107787;28;20346;-48
2023/05/12 21:19:43;;;;;;;;;;;;;;;;;;5088997;28;19947;-45
2023/05/12 21:22:09;;;;;;;;;;;;;;;;;;5089966;28;19941;-47
2023/05/12 21:24:36;;;;;;;;;;;;;;;;;;5107368;28;19908;-46
2023/05/12 21:27:02;;;;;;;;;;;;;;;;;;5107327;28;19907;-48
2023/05/12 21:29:28;;;;;;;;;;;;;;;;;;5114868;27;20006;-49
2023/05/12 21:31:54;;;;;;;;;;;;;;;;;;5127686;27;19915;-47
2023/05/12 21:34:20;;;;;;;;;;;;;;;;;;5127432;27;19908;-46
2023/05/12 21:36:46;;;;;;;;;;;;;;;;;;5127422;27;19913;-47
2023/05/12 21:39:12;;;;;;;;;;;;;;;;;;5127751;27;20404;-50
2023/05/12 21:41:39;;;;;;;;;;;;;;;;;;5127289;27;20065;-48
2023/05/12 21:44:05;;;;;;;;;;;;;;;;;;5128181;27;19923;-48